sensor_id;sensor_type;location;lat;lon;timestamp;P1;durP1;ratioP1;P2;durP2;ratioP2
10078;SDS011;5078;42.544;22.966;2023-08-24T00:00:20;14.63;;;13.13;;
10078;SDS011;5078;42.544;22.966;2023-08-24T00:02:47;13.63;;;12.43;;
10078;SDS011;5078;42.544;22.966;2023-08-24T00:05:13;14.68;;;13.27;;
10078;SDS011;5078;42.544;22.966;2023-08-24T00:07:40;14.93;;;13.48;;
10078;SDS011;5078;42.544;22.966;2023-08-24T00:10:07;16.77;;;13.05;;
10078;SDS011;5078;42.544;22.966;2023-08-24T00:12:36;15.20;;;13.80;;
10078;SDS011;5078;42.544;22.966;2023-08-24T00:15:03;14.48;;;13.18;;
10078;SDS011;5078;42.544;22.966;2023-08-24T00:17:31;14.90;;;13.50;;
10078;SDS011;5078;42.544;22.966;2023-08-24T00:19:57;14.55;;;13.07;;
10078;SDS011;5078;42.544;22.966;2023-08-24T00:22:24;15.77;;;14.23;;
10078;SDS011;5078;42.544;22.966;2023-08-24T00:24:51;15.60;;;14.20;;
10078;SDS011;5078;42.544;22.966;2023-08-24T00:27:17;16.95;;;15.25;;
10078;SDS011;5078;42.544;22.966;2023-08-24T00:29:46;14.73;;;12.88;;
10078;SDS011;5078;42.544;22.966;2023-08-24T00:32:12;15.45;;;13.95;;
10078;SDS011;5078;42.544;22.966;2023-08-24T00:34:39;15.30;;;13.73;;
10078;SDS011;5078;42.544;22.966;2023-08-24T00:37:06;15.15;;;13.70;;
10078;SDS011;5078;42.544;22.966;2023-08-24T00:39:33;16.98;;;13.98;;
10078;SDS011;5078;42.544;22.966;2023-08-24T00:41:59;14.80;;;13.40;;
10078;SDS011;5078;42.544;22.966;2023-08-24T00:44:26;15.02;;;13.63;;
10078;SDS011;5078;42.544;22.966;2023-08-24T00:46:54;15.27;;;13.50;;
10078;SDS011;5078;42.544;22.966;2023-08-24T00:49:21;16.90;;;13.88;;
10078;SDS011;5078;42.544;22.966;2023-08-24T00:51:48;15.48;;;13.98;;
10078;SDS011;5078;42.544;22.966;2023-08-24T00:54:15;15.65;;;14.05;;
10078;SDS011;5078;42.544;22.966;2023-08-24T00:56:42;15.93;;;14.43;;
10078;SDS011;5078;42.544;22.966;2023-08-24T00:59:09;15.02;;;13.65;;
10078;SDS011;5078;42.544;22.966;2023-08-24T01:01:37;15.27;;;13.82;;
10078;SDS011;5078;42.544;22.966;2023-08-24T01:04:07;16.02;;;14.52;;
10078;SDS011;5078;42.544;22.966;2023-08-24T01:06:36;15.40;;;13.98;;
10078;SDS011;5078;42.544;22.966;2023-08-24T01:09:03;15.43;;;13.88;;
10078;SDS011;5078;42.544;22.966;2023-08-24T01:11:32;15.95;;;14.45;;
10078;SDS011;5078;42.544;22.966;2023-08-24T01:14:09;16.50;;;14.82;;
10078;SDS011;5078;42.544;22.966;2023-08-24T01:16:46;14.73;;;13.23;;
10078;SDS011;5078;42.544;22.966;2023-08-24T01:19:20;15.98;;;14.32;;
10078;SDS011;5078;42.544;22.966;2023-08-24T01:21:54;15.27;;;13.85;;
10078;SDS011;5078;42.544;22.966;2023-08-24T01:24:24;15.93;;;13.80;;
10078;SDS011;5078;42.544;22.966;2023-08-24T01:27:02;15.35;;;13.85;;
10078;SDS011;5078;42.544;22.966;2023-08-24T01:29:31;16.02;;;14.50;;
10078;SDS011;5078;42.544;22.966;2023-08-24T01:31:58;16.90;;;15.20;;
10078;SDS011;5078;42.544;22.966;2023-08-24T01:34:24;18.38;;;15.02;;
10078;SDS011;5078;42.544;22.966;2023-08-24T01:36:51;16.40;;;14.80;;
10078;SDS011;5078;42.544;22.966;2023-08-24T01:39:21;16.33;;;14.82;;
10078;SDS011;5078;42.544;22.966;2023-08-24T01:41:55;15.73;;;14.23;;
10078;SDS011;5078;42.544;22.966;2023-08-24T01:44:26;15.80;;;14.30;;
10078;SDS011;5078;42.544;22.966;2023-08-24T01:46:55;16.38;;;14.77;;
10078;SDS011;5078;42.544;22.966;2023-08-24T01:49:24;16.60;;;15.10;;
10078;SDS011;5078;42.544;22.966;2023-08-24T01:51:51;17.30;;;15.48;;
10078;SDS011;5078;42.544;22.966;2023-08-24T01:54:19;16.92;;;15.15;;
10078;SDS011;5078;42.544;22.966;2023-08-24T01:56:46;15.77;;;14.18;;
10078;SDS011;5078;42.544;22.966;2023-08-24T01:59:13;16.77;;;15.18;;
10078;SDS011;5078;42.544;22.966;2023-08-24T02:01:41;15.88;;;14.27;;
10078;SDS011;5078;42.544;22.966;2023-08-24T02:04:08;16.23;;;14.43;;
10078;SDS011;5078;42.544;22.966;2023-08-24T02:06:35;16.13;;;14.63;;
10078;SDS011;5078;42.544;22.966;2023-08-24T02:09:01;17.60;;;15.80;;
10078;SDS011;5078;42.544;22.966;2023-08-24T02:11:29;15.73;;;14.32;;
10078;SDS011;5078;42.544;22.966;2023-08-24T02:13:55;16.73;;;14.88;;
10078;SDS011;5078;42.544;22.966;2023-08-24T02:16:22;17.35;;;15.68;;
10078;SDS011;5078;42.544;22.966;2023-08-24T02:18:50;17.60;;;15.80;;
10078;SDS011;5078;42.544;22.966;2023-08-24T02:21:17;17.17;;;15.60;;
10078;SDS011;5078;42.544;22.966;2023-08-24T02:23:44;22.85;;;15.55;;
10078;SDS011;5078;42.544;22.966;2023-08-24T02:26:10;17.45;;;15.85;;
10078;SDS011;5078;42.544;22.966;2023-08-24T02:28:37;16.13;;;14.52;;
10078;SDS011;5078;42.544;22.966;2023-08-24T02:31:04;16.85;;;15.15;;
10078;SDS011;5078;42.544;22.966;2023-08-24T02:33:31;16.88;;;15.07;;
10078;SDS011;5078;42.544;22.966;2023-08-24T02:35:59;16.90;;;15.15;;
10078;SDS011;5078;42.544;22.966;2023-08-24T02:38:26;17.55;;;15.75;;
10078;SDS011;5078;42.544;22.966;2023-08-24T02:41:00;16.15;;;14.55;;
10078;SDS011;5078;42.544;22.966;2023-08-24T02:43:27;17.85;;;15.93;;
10078;SDS011;5078;42.544;22.966;2023-08-24T02:45:58;17.33;;;15.68;;
10078;SDS011;5078;42.544;22.966;2023-08-24T02:48:27;17.90;;;16.10;;
10078;SDS011;5078;42.544;22.966;2023-08-24T02:50:54;17.90;;;16.10;;
10078;SDS011;5078;42.544;22.966;2023-08-24T02:53:22;21.05;;;16.50;;
10078;SDS011;5078;42.544;22.966;2023-08-24T02:55:49;18.13;;;16.42;;
10078;SDS011;5078;42.544;22.966;2023-08-24T02:58:16;18.60;;;16.70;;
10078;SDS011;5078;42.544;22.966;2023-08-24T03:00:42;17.55;;;15.93;;
10078;SDS011;5078;42.544;22.966;2023-08-24T03:03:09;17.73;;;15.65;;
10078;SDS011;5078;42.544;22.966;2023-08-24T03:05:36;16.95;;;15.40;;
10078;SDS011;5078;42.544;22.966;2023-08-24T03:08:02;18.00;;;16.20;;
10078;SDS011;5078;42.544;22.966;2023-08-24T03:10:31;17.35;;;15.75;;
10078;SDS011;5078;42.544;22.966;2023-08-24T03:13:01;17.17;;;15.48;;
10078;SDS011;5078;42.544;22.966;2023-08-24T03:15:29;16.95;;;14.80;;
10078;SDS011;5078;42.544;22.966;2023-08-24T03:17:56;16.80;;;15.10;;
10078;SDS011;5078;42.544;22.966;2023-08-24T03:20:22;19.23;;;15.68;;
10078;SDS011;5078;42.544;22.966;2023-08-24T03:22:49;18.73;;;16.75;;
10078;SDS011;5078;42.544;22.966;2023-08-24T03:25:16;21.98;;;17.15;;
10078;SDS011;5078;42.544;22.966;2023-08-24T03:27:44;18.73;;;16.90;;
10078;SDS011;5078;42.544;22.966;2023-08-24T03:30:11;19.63;;;16.70;;
10078;SDS011;5078;42.544;22.966;2023-08-24T03:32:39;19.45;;;15.48;;
10078;SDS011;5078;42.544;22.966;2023-08-24T03:35:06;18.42;;;16.48;;
10078;SDS011;5078;42.544;22.966;2023-08-24T03:37:33;19.13;;;16.65;;
10078;SDS011;5078;42.544;22.966;2023-08-24T03:40:00;19.40;;;17.33;;
10078;SDS011;5078;42.544;22.966;2023-08-24T03:42:28;20.00;;;17.90;;
10078;SDS011;5078;42.544;22.966;2023-08-24T03:44:56;24.42;;;17.80;;
10078;SDS011;5078;42.544;22.966;2023-08-24T03:47:23;19.95;;;17.92;;
10078;SDS011;5078;42.544;22.966;2023-08-24T03:49:49;22.48;;;20.10;;
10078;SDS011;5078;42.544;22.966;2023-08-24T03:52:16;23.42;;;18.85;;
10078;SDS011;5078;42.544;22.966;2023-08-24T03:54:43;26.50;;;23.77;;
10078;SDS011;5078;42.544;22.966;2023-08-24T03:57:09;21.08;;;17.80;;
10078;SDS011;5078;42.544;22.966;2023-08-24T03:59:36;20.85;;;18.65;;
10078;SDS011;5078;42.544;22.966;2023-08-24T04:02:04;27.80;;;22.45;;
10078;SDS011;5078;42.544;22.966;2023-08-24T04:04:31;19.80;;;17.67;;
10078;SDS011;5078;42.544;22.966;2023-08-24T04:06:58;24.00;;;19.20;;
10078;SDS011;5078;42.544;22.966;2023-08-24T04:09:25;31.73;;;28.52;;
10078;SDS011;5078;42.544;22.966;2023-08-24T04:11:52;31.70;;;28.00;;
10078;SDS011;5078;42.544;22.966;2023-08-24T04:14:18;76.35;;;68.88;;
10078;SDS011;5078;42.544;22.966;2023-08-24T04:16:45;97.25;;;87.57;;
10078;SDS011;5078;42.544;22.966;2023-08-24T04:19:14;84.20;;;75.75;;
10078;SDS011;5078;42.544;22.966;2023-08-24T04:21:40;73.68;;;66.13;;
10078;SDS011;5078;42.544;22.966;2023-08-24T04:24:07;67.25;;;60.03;;
10078;SDS011;5078;42.544;22.966;2023-08-24T04:26:34;78.57;;;70.40;;
10078;SDS011;5078;42.544;22.966;2023-08-24T04:29:01;64.90;;;54.78;;
10078;SDS011;5078;42.544;22.966;2023-08-24T04:31:28;55.50;;;49.80;;
10078;SDS011;5078;42.544;22.966;2023-08-24T04:33:55;29.70;;;25.98;;
10078;SDS011;5078;42.544;22.966;2023-08-24T04:36:23;22.92;;;20.52;;
10078;SDS011;5078;42.544;22.966;2023-08-24T04:38:49;19.20;;;17.30;;
10078;SDS011;5078;42.544;22.966;2023-08-24T04:41:16;19.02;;;16.95;;
10078;SDS011;5078;42.544;22.966;2023-08-24T04:43:43;18.20;;;16.35;;
10078;SDS011;5078;42.544;22.966;2023-08-24T04:46:09;19.75;;;17.75;;
10078;SDS011;5078;42.544;22.966;2023-08-24T04:48:36;18.02;;;16.25;;
10078;SDS011;5078;42.544;22.966;2023-08-24T04:51:03;19.63;;;17.52;;
10078;SDS011;5078;42.544;22.966;2023-08-24T04:53:31;20.63;;;18.55;;
10078;SDS011;5078;42.544;22.966;2023-08-24T04:55:58;27.38;;;24.63;;
10078;SDS011;5078;42.544;22.966;2023-08-24T04:58:25;30.10;;;26.88;;
10078;SDS011;5078;42.544;22.966;2023-08-24T05:00:51;28.58;;;25.70;;
10078;SDS011;5078;42.544;22.966;2023-08-24T05:03:18;26.60;;;23.27;;
10078;SDS011;5078;42.544;22.966;2023-08-24T05:05:46;24.73;;;22.23;;
10078;SDS011;5078;42.544;22.966;2023-08-24T05:08:13;24.20;;;21.33;;
10078;SDS011;5078;42.544;22.966;2023-08-24T05:10:41;24.55;;;21.05;;
10078;SDS011;5078;42.544;22.966;2023-08-24T05:13:08;20.33;;;18.27;;
10078;SDS011;5078;42.544;22.966;2023-08-24T05:15:35;19.48;;;17.58;;
10078;SDS011;5078;42.544;22.966;2023-08-24T05:18:01;20.40;;;18.42;;
10078;SDS011;5078;42.544;22.966;2023-08-24T05:20:28;20.10;;;18.25;;
10078;SDS011;5078;42.544;22.966;2023-08-24T05:22:55;20.13;;;18.08;;
10078;SDS011;5078;42.544;22.966;2023-08-24T05:25:23;20.05;;;18.10;;
10078;SDS011;5078;42.544;22.966;2023-08-24T05:27:51;21.38;;;19.35;;
10078;SDS011;5078;42.544;22.966;2023-08-24T05:30:18;30.60;;;27.45;;
10078;SDS011;5078;42.544;22.966;2023-08-24T05:32:44;21.85;;;19.83;;
10078;SDS011;5078;42.544;22.966;2023-08-24T05:35:11;22.90;;;20.48;;
10078;SDS011;5078;42.544;22.966;2023-08-24T05:37:38;21.77;;;19.60;;
10078;SDS011;5078;42.544;22.966;2023-08-24T05:40:05;20.98;;;19.00;;
10078;SDS011;5078;42.544;22.966;2023-08-24T05:42:32;22.15;;;18.98;;
10078;SDS011;5078;42.544;22.966;2023-08-24T05:45:03;23.02;;;19.38;;
10078;SDS011;5078;42.544;22.966;2023-08-24T05:47:30;21.38;;;19.45;;
10078;SDS011;5078;42.544;22.966;2023-08-24T05:49:57;20.65;;;18.75;;
10078;SDS011;5078;42.544;22.966;2023-08-24T05:52:23;21.20;;;19.10;;
10078;SDS011;5078;42.544;22.966;2023-08-24T05:54:50;31.30;;;28.27;;
10078;SDS011;5078;42.544;22.966;2023-08-24T05:57:17;22.92;;;20.13;;
10078;SDS011;5078;42.544;22.966;2023-08-24T05:59:43;20.85;;;18.48;;
10078;SDS011;5078;42.544;22.966;2023-08-24T06:02:11;19.88;;;18.08;;
10078;SDS011;5078;42.544;22.966;2023-08-24T06:04:38;20.95;;;18.58;;
10078;SDS011;5078;42.544;22.966;2023-08-24T06:07:05;20.20;;;18.17;;
10078;SDS011;5078;42.544;22.966;2023-08-24T06:09:31;19.88;;;17.73;;
10078;SDS011;5078;42.544;22.966;2023-08-24T06:11:58;19.25;;;17.45;;
10078;SDS011;5078;42.544;22.966;2023-08-24T06:14:25;17.98;;;16.15;;
10078;SDS011;5078;42.544;22.966;2023-08-24T06:16:51;19.23;;;17.23;;
10078;SDS011;5078;42.544;22.966;2023-08-24T06:19:20;19.00;;;17.15;;
10078;SDS011;5078;42.544;22.966;2023-08-24T06:21:47;19.15;;;16.95;;
10078;SDS011;5078;42.544;22.966;2023-08-24T06:24:14;18.92;;;16.88;;
10078;SDS011;5078;42.544;22.966;2023-08-24T06:26:40;18.00;;;16.23;;
10078;SDS011;5078;42.544;22.966;2023-08-24T06:29:07;18.48;;;16.77;;
10078;SDS011;5078;42.544;22.966;2023-08-24T06:31:34;18.58;;;16.75;;
10078;SDS011;5078;42.544;22.966;2023-08-24T06:34:00;18.80;;;16.80;;
10078;SDS011;5078;42.544;22.966;2023-08-24T06:36:28;20.20;;;18.15;;
10078;SDS011;5078;42.544;22.966;2023-08-24T06:38:55;19.52;;;17.40;;
10078;SDS011;5078;42.544;22.966;2023-08-24T06:41:23;19.58;;;17.55;;
10078;SDS011;5078;42.544;22.966;2023-08-24T06:43:50;19.33;;;17.45;;
10078;SDS011;5078;42.544;22.966;2023-08-24T06:46:18;19.55;;;17.55;;
10078;SDS011;5078;42.544;22.966;2023-08-24T06:48:45;18.58;;;16.60;;
10078;SDS011;5078;42.544;22.966;2023-08-24T06:51:12;20.67;;;16.65;;
10078;SDS011;5078;42.544;22.966;2023-08-24T06:53:40;18.60;;;16.60;;
10078;SDS011;5078;42.544;22.966;2023-08-24T06:56:07;18.77;;;16.85;;
10078;SDS011;5078;42.544;22.966;2023-08-24T06:58:34;21.95;;;17.60;;
10078;SDS011;5078;42.544;22.966;2023-08-24T07:01:01;18.48;;;16.52;;
10078;SDS011;5078;42.544;22.966;2023-08-24T07:03:31;18.33;;;16.45;;
10078;SDS011;5078;42.544;22.966;2023-08-24T07:05:58;17.58;;;15.82;;
10078;SDS011;5078;42.544;22.966;2023-08-24T07:08:25;17.10;;;15.30;;
10078;SDS011;5078;42.544;22.966;2023-08-24T07:10:53;16.90;;;15.20;;
10078;SDS011;5078;42.544;22.966;2023-08-24T07:13:19;18.17;;;15.25;;
10078;SDS011;5078;42.544;22.966;2023-08-24T07:15:46;15.90;;;14.18;;
10078;SDS011;5078;42.544;22.966;2023-08-24T07:18:13;16.35;;;14.82;;
10078;SDS011;5078;42.544;22.966;2023-08-24T07:20:39;17.42;;;15.82;;
10078;SDS011;5078;42.544;22.966;2023-08-24T07:23:06;16.42;;;15.02;;
10078;SDS011;5078;42.544;22.966;2023-08-24T07:25:33;16.77;;;15.18;;
10078;SDS011;5078;42.544;22.966;2023-08-24T07:28:01;16.58;;;14.85;;
10078;SDS011;5078;42.544;22.966;2023-08-24T07:30:28;17.20;;;15.65;;
10078;SDS011;5078;42.544;22.966;2023-08-24T07:32:55;16.67;;;14.60;;
10078;SDS011;5078;42.544;22.966;2023-08-24T07:35:22;15.20;;;13.85;;
10078;SDS011;5078;42.544;22.966;2023-08-24T07:37:50;15.77;;;14.23;;
10078;SDS011;5078;42.544;22.966;2023-08-24T07:40:17;17.08;;;15.32;;
10078;SDS011;5078;42.544;22.966;2023-08-24T07:42:43;16.58;;;13.60;;
10078;SDS011;5078;42.544;22.966;2023-08-24T07:45:12;14.82;;;13.40;;
10078;SDS011;5078;42.544;22.966;2023-08-24T07:47:40;13.85;;;12.45;;
10078;SDS011;5078;42.544;22.966;2023-08-24T07:50:07;14.77;;;13.38;;
10078;SDS011;5078;42.544;22.966;2023-08-24T07:52:34;14.02;;;12.73;;
10078;SDS011;5078;42.544;22.966;2023-08-24T07:55:02;13.07;;;11.90;;
10078;SDS011;5078;42.544;22.966;2023-08-24T07:57:30;13.77;;;12.55;;
10078;SDS011;5078;42.544;22.966;2023-08-24T07:59:57;12.93;;;11.93;;
10078;SDS011;5078;42.544;22.966;2023-08-24T08:02:25;13.88;;;12.73;;
10078;SDS011;5078;42.544;22.966;2023-08-24T08:04:55;15.38;;;13.07;;
10078;SDS011;5078;42.544;22.966;2023-08-24T08:07:23;14.02;;;12.68;;
10078;SDS011;5078;42.544;22.966;2023-08-24T08:09:50;13.00;;;11.93;;
10078;SDS011;5078;42.544;22.966;2023-08-24T08:12:17;13.65;;;12.48;;
10078;SDS011;5078;42.544;22.966;2023-08-24T08:14:43;13.57;;;12.18;;
10078;SDS011;5078;42.544;22.966;2023-08-24T08:17:10;13.50;;;12.10;;
10078;SDS011;5078;42.544;22.966;2023-08-24T08:19:38;15.18;;;13.57;;
10078;SDS011;5078;42.544;22.966;2023-08-24T08:22:06;12.90;;;11.80;;
10078;SDS011;5078;42.544;22.966;2023-08-24T08:24:33;13.80;;;12.43;;
10078;SDS011;5078;42.544;22.966;2023-08-24T08:26:59;13.35;;;12.02;;
10078;SDS011;5078;42.544;22.966;2023-08-24T08:29:26;13.07;;;11.85;;
10078;SDS011;5078;42.544;22.966;2023-08-24T08:31:53;14.15;;;12.73;;
10078;SDS011;5078;42.544;22.966;2023-08-24T08:34:19;14.38;;;12.88;;
10078;SDS011;5078;42.544;22.966;2023-08-24T08:36:47;13.73;;;12.32;;
10078;SDS011;5078;42.544;22.966;2023-08-24T08:39:14;15.63;;;14.05;;
10078;SDS011;5078;42.544;22.966;2023-08-24T08:41:43;15.38;;;14.02;;
10078;SDS011;5078;42.544;22.966;2023-08-24T08:44:11;15.20;;;13.82;;
10078;SDS011;5078;42.544;22.966;2023-08-24T08:46:40;15.40;;;13.80;;
10078;SDS011;5078;42.544;22.966;2023-08-24T08:49:08;14.40;;;12.95;;
10078;SDS011;5078;42.544;22.966;2023-08-24T08:51:35;14.13;;;13.02;;
10078;SDS011;5078;42.544;22.966;2023-08-24T08:54:04;14.73;;;13.32;;
10078;SDS011;5078;42.544;22.966;2023-08-24T08:56:31;13.68;;;12.38;;
10078;SDS011;5078;42.544;22.966;2023-08-24T08:58:58;16.20;;;14.70;;
10078;SDS011;5078;42.544;22.966;2023-08-24T09:01:26;14.27;;;12.65;;
10078;SDS011;5078;42.544;22.966;2023-08-24T09:03:53;13.32;;;12.18;;
10078;SDS011;5078;42.544;22.966;2023-08-24T09:06:20;13.38;;;12.13;;
10078;SDS011;5078;42.544;22.966;2023-08-24T09:08:48;14.88;;;13.35;;
10078;SDS011;5078;42.544;22.966;2023-08-24T09:11:17;13.55;;;12.35;;
10078;SDS011;5078;42.544;22.966;2023-08-24T09:13:43;13.52;;;12.32;;
10078;SDS011;5078;42.544;22.966;2023-08-24T09:16:10;14.77;;;13.05;;
10078;SDS011;5078;42.544;22.966;2023-08-24T09:18:41;13.48;;;12.20;;
10078;SDS011;5078;42.544;22.966;2023-08-24T09:21:09;11.63;;;10.60;;
10078;SDS011;5078;42.544;22.966;2023-08-24T09:23:37;14.27;;;11.80;;
10078;SDS011;5078;42.544;22.966;2023-08-24T09:26:04;12.23;;;11.02;;
10078;SDS011;5078;42.544;22.966;2023-08-24T09:28:32;16.77;;;11.70;;
10078;SDS011;5078;42.544;22.966;2023-08-24T09:31:01;12.30;;;11.10;;
10078;SDS011;5078;42.544;22.966;2023-08-24T09:33:29;12.30;;;10.27;;
10078;SDS011;5078;42.544;22.966;2023-08-24T09:35:56;12.95;;;11.63;;
10078;SDS011;5078;42.544;22.966;2023-08-24T09:38:26;12.40;;;11.25;;
10078;SDS011;5078;42.544;22.966;2023-08-24T09:40:54;13.18;;;12.07;;
10078;SDS011;5078;42.544;22.966;2023-08-24T09:43:21;11.93;;;10.82;;
10078;SDS011;5078;42.544;22.966;2023-08-24T09:45:51;30.05;;;27.13;;
10078;SDS011;5078;42.544;22.966;2023-08-24T09:48:18;88.20;;;80.32;;
10078;SDS011;5078;42.544;22.966;2023-08-24T09:50:45;38.30;;;34.88;;
10078;SDS011;5078;42.544;22.966;2023-08-24T09:53:14;47.70;;;43.08;;
10078;SDS011;5078;42.544;22.966;2023-08-24T09:55:43;52.13;;;47.05;;
10078;SDS011;5078;42.544;22.966;2023-08-24T09:58:15;107.75;;;97.85;;
10078;SDS011;5078;42.544;22.966;2023-08-24T10:00:42;103.25;;;93.72;;
10078;SDS011;5078;42.544;22.966;2023-08-24T10:03:14;13.30;;;12.07;;
10078;SDS011;5078;42.544;22.966;2023-08-24T10:05:45;12.50;;;11.30;;
10078;SDS011;5078;42.544;22.966;2023-08-24T10:08:13;11.38;;;10.40;;
10078;SDS011;5078;42.544;22.966;2023-08-24T10:10:42;12.38;;;11.05;;
10078;SDS011;5078;42.544;22.966;2023-08-24T10:13:11;11.40;;;10.40;;
10078;SDS011;5078;42.544;22.966;2023-08-24T10:15:44;12.80;;;11.45;;
10078;SDS011;5078;42.544;22.966;2023-08-24T10:18:14;12.75;;;10.52;;
10078;SDS011;5078;42.544;22.966;2023-08-24T10:20:41;11.88;;;10.88;;
10078;SDS011;5078;42.544;22.966;2023-08-24T10:23:10;11.00;;;9.93;;
10078;SDS011;5078;42.544;22.966;2023-08-24T10:25:39;11.57;;;10.52;;
10078;SDS011;5078;42.544;22.966;2023-08-24T10:28:07;10.95;;;10.02;;
10078;SDS011;5078;42.544;22.966;2023-08-24T10:30:34;12.52;;;11.52;;
10078;SDS011;5078;42.544;22.966;2023-08-24T10:33:03;11.73;;;10.80;;
10078;SDS011;5078;42.544;22.966;2023-08-24T10:35:32;12.20;;;11.30;;
10078;SDS011;5078;42.544;22.966;2023-08-24T10:37:59;11.85;;;10.82;;
10078;SDS011;5078;42.544;22.966;2023-08-24T10:40:32;11.88;;;10.70;;
10078;SDS011;5078;42.544;22.966;2023-08-24T10:43:02;11.38;;;10.45;;
10078;SDS011;5078;42.544;22.966;2023-08-24T10:48:21;11.07;;;10.18;;
10078;SDS011;5078;42.544;22.966;2023-08-24T10:53:45;10.43;;;9.40;;
10078;SDS011;5078;42.544;22.966;2023-08-24T10:56:13;10.63;;;9.63;;
10078;SDS011;5078;42.544;22.966;2023-08-24T10:58:40;12.13;;;10.85;;
10078;SDS011;5078;42.544;22.966;2023-08-24T11:01:07;12.05;;;10.88;;
10078;SDS011;5078;42.544;22.966;2023-08-24T11:03:40;11.30;;;10.18;;
10078;SDS011;5078;42.544;22.966;2023-08-24T11:06:18;10.90;;;9.93;;
10078;SDS011;5078;42.544;22.966;2023-08-24T11:08:46;13.65;;;12.45;;
10078;SDS011;5078;42.544;22.966;2023-08-24T11:11:20;13.32;;;11.68;;
10078;SDS011;5078;42.544;22.966;2023-08-24T11:16:44;14.32;;;12.52;;
10078;SDS011;5078;42.544;22.966;2023-08-24T11:19:12;19.38;;;14.15;;
10078;SDS011;5078;42.544;22.966;2023-08-24T11:21:43;15.05;;;13.55;;
10078;SDS011;5078;42.544;22.966;2023-08-24T11:24:12;14.45;;;12.98;;
10078;SDS011;5078;42.544;22.966;2023-08-24T11:26:42;12.90;;;11.60;;
10078;SDS011;5078;42.544;22.966;2023-08-24T11:29:10;14.00;;;12.68;;
10078;SDS011;5078;42.544;22.966;2023-08-24T11:31:37;13.10;;;11.95;;
10078;SDS011;5078;42.544;22.966;2023-08-24T11:34:04;14.05;;;12.70;;
10078;SDS011;5078;42.544;22.966;2023-08-24T11:36:42;13.70;;;12.50;;
10078;SDS011;5078;42.544;22.966;2023-08-24T11:39:14;13.13;;;12.02;;
10078;SDS011;5078;42.544;22.966;2023-08-24T11:41:42;14.93;;;11.88;;
10078;SDS011;5078;42.544;22.966;2023-08-24T11:44:09;14.35;;;12.90;;
10078;SDS011;5078;42.544;22.966;2023-08-24T11:46:36;14.50;;;13.00;;
10078;SDS011;5078;42.544;22.966;2023-08-24T11:49:04;16.05;;;14.38;;
10078;SDS011;5078;42.544;22.966;2023-08-24T11:51:31;14.57;;;13.18;;
10078;SDS011;5078;42.544;22.966;2023-08-24T11:54:01;15.60;;;14.00;;
10078;SDS011;5078;42.544;22.966;2023-08-24T11:56:27;14.90;;;13.40;;
10078;SDS011;5078;42.544;22.966;2023-08-24T11:58:54;15.35;;;13.73;;
10078;SDS011;5078;42.544;22.966;2023-08-24T12:01:21;15.15;;;13.75;;
10078;SDS011;5078;42.544;22.966;2023-08-24T12:03:48;13.57;;;12.38;;
10078;SDS011;5078;42.544;22.966;2023-08-24T12:06:15;14.32;;;12.82;;
10078;SDS011;5078;42.544;22.966;2023-08-24T12:08:44;15.82;;;14.13;;
10078;SDS011;5078;42.544;22.966;2023-08-24T12:11:14;14.38;;;12.98;;
10078;SDS011;5078;42.544;22.966;2023-08-24T12:13:43;13.23;;;11.93;;
10078;SDS011;5078;42.544;22.966;2023-08-24T12:16:10;15.93;;;13.05;;
10078;SDS011;5078;42.544;22.966;2023-08-24T12:18:49;14.30;;;12.93;;
10078;SDS011;5078;42.544;22.966;2023-08-24T12:21:17;14.27;;;12.88;;
10078;SDS011;5078;42.544;22.966;2023-08-24T12:23:44;12.73;;;11.45;;
10078;SDS011;5078;42.544;22.966;2023-08-24T12:26:19;14.43;;;13.02;;
10078;SDS011;5078;42.544;22.966;2023-08-24T12:28:48;17.23;;;13.27;;
10078;SDS011;5078;42.544;22.966;2023-08-24T12:31:17;13.10;;;11.90;;
10078;SDS011;5078;42.544;22.966;2023-08-24T12:33:44;14.13;;;12.82;;
10078;SDS011;5078;42.544;22.966;2023-08-24T12:36:11;13.23;;;11.93;;
10078;SDS011;5078;42.544;22.966;2023-08-24T12:38:38;14.10;;;12.35;;
10078;SDS011;5078;42.544;22.966;2023-08-24T12:41:06;12.57;;;11.43;;
10078;SDS011;5078;42.544;22.966;2023-08-24T12:43:35;11.40;;;10.40;;
10078;SDS011;5078;42.544;22.966;2023-08-24T12:46:01;12.77;;;11.68;;
10078;SDS011;5078;42.544;22.966;2023-08-24T12:48:28;13.05;;;11.70;;
10078;SDS011;5078;42.544;22.966;2023-08-24T12:50:55;13.75;;;12.52;;
10078;SDS011;5078;42.544;22.966;2023-08-24T12:53:21;13.77;;;12.00;;
10078;SDS011;5078;42.544;22.966;2023-08-24T12:55:48;13.27;;;12.07;;
10078;SDS011;5078;42.544;22.966;2023-08-24T12:58:15;16.52;;;13.00;;
10078;SDS011;5078;42.544;22.966;2023-08-24T13:00:44;13.52;;;12.20;;
10078;SDS011;5078;42.544;22.966;2023-08-24T13:03:11;12.35;;;10.68;;
10078;SDS011;5078;42.544;22.966;2023-08-24T13:05:37;10.80;;;9.00;;
10078;SDS011;5078;42.544;22.966;2023-08-24T13:08:04;10.93;;;9.20;;
10078;SDS011;5078;42.544;22.966;2023-08-24T13:10:31;9.02;;;8.23;;
10078;SDS011;5078;42.544;22.966;2023-08-24T13:12:58;9.43;;;8.52;;
10078;SDS011;5078;42.544;22.966;2023-08-24T13:15:25;10.27;;;9.38;;
10078;SDS011;5078;42.544;22.966;2023-08-24T13:17:53;9.35;;;8.50;;
10078;SDS011;5078;42.544;22.966;2023-08-24T13:20:20;10.60;;;8.50;;
10078;SDS011;5078;42.544;22.966;2023-08-24T13:22:46;9.75;;;8.85;;
10078;SDS011;5078;42.544;22.966;2023-08-24T13:25:13;11.98;;;8.80;;
10078;SDS011;5078;42.544;22.966;2023-08-24T13:27:40;9.95;;;9.05;;
10078;SDS011;5078;42.544;22.966;2023-08-24T13:30:07;8.32;;;7.55;;
10078;SDS011;5078;42.544;22.966;2023-08-24T13:32:33;9.35;;;8.52;;
10078;SDS011;5078;42.544;22.966;2023-08-24T13:35:04;9.52;;;8.60;;
10078;SDS011;5078;42.544;22.966;2023-08-24T13:37:34;10.52;;;7.80;;
10078;SDS011;5078;42.544;22.966;2023-08-24T13:40:01;8.82;;;8.02;;
10078;SDS011;5078;42.544;22.966;2023-08-24T13:42:28;10.73;;;9.02;;
10078;SDS011;5078;42.544;22.966;2023-08-24T13:44:55;9.60;;;8.70;;
10078;SDS011;5078;42.544;22.966;2023-08-24T13:47:22;10.88;;;8.38;;
10078;SDS011;5078;42.544;22.966;2023-08-24T13:49:48;9.13;;;8.32;;
10078;SDS011;5078;42.544;22.966;2023-08-24T13:52:16;9.20;;;8.30;;
10078;SDS011;5078;42.544;22.966;2023-08-24T13:54:44;10.95;;;9.85;;
10078;SDS011;5078;42.544;22.966;2023-08-24T13:57:11;21.58;;;19.55;;
10078;SDS011;5078;42.544;22.966;2023-08-24T13:59:37;96.28;;;86.47;;
10078;SDS011;5078;42.544;22.966;2023-08-24T14:02:04;14.27;;;12.77;;
10078;SDS011;5078;42.544;22.966;2023-08-24T14:04:32;12.82;;;11.30;;
10078;SDS011;5078;42.544;22.966;2023-08-24T14:06:58;12.07;;;10.90;;
10078;SDS011;5078;42.544;22.966;2023-08-24T14:09:26;12.40;;;11.10;;
10078;SDS011;5078;42.544;22.966;2023-08-24T14:11:53;11.38;;;10.38;;
10078;SDS011;5078;42.544;22.966;2023-08-24T14:14:20;12.25;;;10.68;;
10078;SDS011;5078;42.544;22.966;2023-08-24T14:16:48;11.95;;;10.60;;
10078;SDS011;5078;42.544;22.966;2023-08-24T14:19:20;13.05;;;11.55;;
10078;SDS011;5078;42.544;22.966;2023-08-24T14:21:47;11.90;;;10.68;;
10078;SDS011;5078;42.544;22.966;2023-08-24T14:24:14;11.75;;;10.65;;
10078;SDS011;5078;42.544;22.966;2023-08-24T14:26:43;12.30;;;11.20;;
10078;SDS011;5078;42.544;22.966;2023-08-24T14:29:11;12.52;;;11.32;;
10078;SDS011;5078;42.544;22.966;2023-08-24T14:31:38;46.42;;;42.10;;
10078;SDS011;5078;42.544;22.966;2023-08-24T14:34:05;66.15;;;58.40;;